createdAt,value
2022-10-30T00:02:11.910Z,100.00
2022-10-30T00:05:36.785Z,100.00
2022-10-30T00:08:53.794Z,100.00
2022-10-30T00:12:17.760Z,100.00
2022-10-30T00:15:42.805Z,100.00
2022-10-30T00:19:06.779Z,100.00
2022-10-30T00:22:31.799Z,100.00
2022-10-30T00:25:54.770Z,100.00
2022-10-30T00:29:19.783Z,100.00
2022-10-30T00:32:43.808Z,100.00
2022-10-30T00:36:07.770Z,100.00
2022-10-30T00:39:31.802Z,100.00
2022-10-30T00:42:55.788Z,100.00
2022-10-30T00:46:24.806Z,100.00
2022-10-30T00:49:51.766Z,100.00
2022-10-30T00:53:19.811Z,100.00
2022-10-30T00:56:37.375Z,100.00
2022-10-30T00:59:55.805Z,100.00
2022-10-30T01:03:19.770Z,100.00
2022-10-30T01:06:43.916Z,100.00
2022-10-30T01:10:08.763Z,100.00
2022-10-30T01:13:32.807Z,100.00
2022-10-30T01:17:23.799Z,100.00
2022-10-30T01:21:09.807Z,100.00
2022-10-30T01:25:01.820Z,100.00
2022-10-30T01:28:30.821Z,100.00
2022-10-30T01:32:21.841Z,100.00
2022-10-30T01:36:07.798Z,100.00
2022-10-30T01:39:55.831Z,100.00
2022-10-30T01:43:19.814Z,100.00
2022-10-30T01:47:17.816Z,100.00
2022-10-30T01:51:02.846Z,100.00
2022-10-30T01:54:45.803Z,100.00
2022-10-30T01:58:19.864Z,100.00
2022-10-30T02:01:44.969Z,100.00
2022-10-30T02:05:08.833Z,100.00
2022-10-30T02:08:32.794Z,100.00
2022-10-30T02:11:55.830Z,100.00
2022-10-30T02:15:39.860Z,100.00
2022-10-30T02:19:04.809Z,100.00
2022-10-30T02:22:28.905Z,100.00
2022-10-30T02:25:52.831Z,100.00
2022-10-30T02:29:18.828Z,100.00
2022-10-30T02:32:42.850Z,100.00
2022-10-30T02:36:07.831Z,100.00
2022-10-30T02:39:32.861Z,100.00
2022-10-30T02:42:57.835Z,100.00
2022-10-30T02:46:22.844Z,100.00
2022-10-30T02:49:46.889Z,100.00
2022-10-30T02:53:10.844Z,100.00
2022-10-30T02:56:35.827Z,100.00
2022-10-30T02:59:59.857Z,100.00
2022-10-30T03:03:24.842Z,100.00
2022-10-30T03:06:48.854Z,100.00
2022-10-30T03:10:13.844Z,100.00
2022-10-30T03:13:37.872Z,100.00
2022-10-30T03:17:02.872Z,100.00
2022-10-30T03:20:27.863Z,100.00
2022-10-30T03:23:51.842Z,100.00
2022-10-30T03:27:16.882Z,100.00
2022-10-30T03:30:41.843Z,100.00
2022-10-30T03:34:06.903Z,100.00
2022-10-30T03:37:31.838Z,100.00
2022-10-30T03:40:55.883Z,100.00
2022-10-30T03:44:20.832Z,100.00
2022-10-30T03:47:46.934Z,100.00
2022-10-30T03:51:14.895Z,100.00
2022-10-30T03:54:40.899Z,100.00
2022-10-30T03:58:06.859Z,100.00
2022-10-30T04:01:33.060Z,100.00
2022-10-30T04:04:56.851Z,100.00
2022-10-30T04:08:16.903Z,100.00
2022-10-30T04:11:40.853Z,100.00
2022-10-30T04:15:04.902Z,100.00
2022-10-30T04:18:29.887Z,100.00
2022-10-30T04:21:55.864Z,100.00
2022-10-30T04:25:19.900Z,100.00
2022-10-30T04:28:43.041Z,100.00
2022-10-30T04:32:07.866Z,100.00
2022-10-30T04:35:12.054Z,100.00
2022-10-30T04:38:16.870Z,100.00
2022-10-30T04:41:20.901Z,100.00
2022-10-30T04:44:46.864Z,100.00
2022-10-30T04:47:49.909Z,100.00
2022-10-30T04:50:53.876Z,100.00
2022-10-30T04:53:57.929Z,100.00
2022-10-30T04:57:01.879Z,100.00
2022-10-30T05:00:04.920Z,100.00
2022-10-30T05:03:08.885Z,100.00
2022-10-30T05:06:14.975Z,100.00
2022-10-30T05:09:18.874Z,100.00
2022-10-30T05:12:21.952Z,100.00
2022-10-30T05:15:25.885Z,100.00
2022-10-30T05:18:29.951Z,100.00
2022-10-30T05:21:32.903Z,100.00
2022-10-30T05:24:35.937Z,100.00
2022-10-30T05:27:39.910Z,100.00
2022-10-30T05:30:45.924Z,100.00
2022-10-30T05:34:07.611Z,100.00
2022-10-30T05:37:11.910Z,100.00
2022-10-30T05:40:08.935Z,100.00
2022-10-30T05:43:12.902Z,100.00
2022-10-30T05:46:16.946Z,100.00
2022-10-30T05:49:20.897Z,100.00
2022-10-30T05:52:24.946Z,100.00
2022-10-30T05:55:28.903Z,100.00
2022-10-30T05:58:46.953Z,100.00
2022-10-30T06:01:49.945Z,100.00
2022-10-30T06:04:52.943Z,100.00
2022-10-30T06:07:55.939Z,100.00
2022-10-30T06:10:58.936Z,100.00
2022-10-30T06:14:07.952Z,100.00
2022-10-30T06:17:20.952Z,100.00
2022-10-30T06:20:29.917Z,100.00
2022-10-30T06:23:58.967Z,100.00
2022-10-30T06:27:12.923Z,100.00
2022-10-30T06:30:15.972Z,100.00
2022-10-30T06:33:20.924Z,100.00
2022-10-30T06:36:25.966Z,100.00
2022-10-30T06:39:28.924Z,100.00
2022-10-30T06:43:03.250Z,100.00
2022-10-30T06:46:12.944Z,100.00
2022-10-30T06:49:15.981Z,100.00
2022-10-30T06:52:20.945Z,100.00
2022-10-30T06:55:25.986Z,100.00
2022-10-30T06:58:43.628Z,100.00
2022-10-30T07:02:00.519Z,100.00
2022-10-30T07:05:16.967Z,100.00
2022-10-30T07:08:21.065Z,100.00
2022-10-30T07:11:23.947Z,100.00
2022-10-30T07:14:42.969Z,100.00
2022-10-30T07:18:11.943Z,100.00
2022-10-30T07:21:15.960Z,100.00
2022-10-30T07:24:18.958Z,100.00
2022-10-30T07:27:58.285Z,100.00
2022-10-30T07:31:17.183Z,100.00
2022-10-30T07:34:49.992Z,100.00
2022-10-30T07:37:52.969Z,100.00
2022-10-30T07:41:10.004Z,100.00
2022-10-30T07:44:18.965Z,100.00
2022-10-30T07:47:37.972Z,100.00
2022-10-30T07:50:54.010Z,100.00
2022-10-30T07:54:00.506Z,100.00
2022-10-30T07:57:10.684Z,100.00
2022-10-30T08:00:30.541Z,100.00
2022-10-30T08:03:44.005Z,100.00
2022-10-30T08:06:57.961Z,100.00
2022-10-30T08:10:01.001Z,100.00
2022-10-30T08:13:03.986Z,100.00
2022-10-30T08:16:08.004Z,100.00
2022-10-30T08:19:12.002Z,100.00
2022-10-30T08:22:14.994Z,100.00
2022-10-30T08:25:27.000Z,100.00
2022-10-30T08:28:32.790Z,100.00
2022-10-30T08:31:39.047Z,100.00
2022-10-30T08:34:53.995Z,100.00
2022-10-30T08:38:00.405Z,100.00
2022-10-30T08:41:04.010Z,100.00
2022-10-30T08:44:14.012Z,100.00
2022-10-30T08:47:40.006Z,100.00
2022-10-30T08:50:43.022Z,100.00
2022-10-30T08:53:53.005Z,100.00
2022-10-30T08:56:56.028Z,100.00
2022-10-30T08:59:59.013Z,100.00
2022-10-30T09:03:20.044Z,100.00
2022-10-30T09:07:04.548Z,100.00
2022-10-30T09:10:36.035Z,100.00
2022-10-30T09:13:40.012Z,100.00
2022-10-30T09:16:43.027Z,100.00
2022-10-30T09:19:50.031Z,100.00
2022-10-30T09:23:03.489Z,100.00
2022-10-30T09:26:08.014Z,100.00
2022-10-30T09:29:26.050Z,100.00
2022-10-30T09:32:35.018Z,100.00
2022-10-30T09:35:41.045Z,100.00
2022-10-30T09:38:44.039Z,100.00
2022-10-30T09:42:11.067Z,100.00
2022-10-30T09:45:52.019Z,100.00
2022-10-30T09:49:22.048Z,100.00
2022-10-30T09:52:44.062Z,100.00
2022-10-30T09:55:56.038Z,100.00
2022-10-30T09:59:19.062Z,100.00
2022-10-30T10:02:41.150Z,100.00
2022-10-30T10:05:59.080Z,100.00
2022-10-30T10:09:33.048Z,100.00
2022-10-30T10:13:01.476Z,100.00
2022-10-30T10:16:14.059Z,100.00
2022-10-30T10:19:39.044Z,100.00
2022-10-30T10:22:54.063Z,100.00
2022-10-30T10:25:59.045Z,100.00
2022-10-30T10:29:18.057Z,100.00
2022-10-30T10:32:22.098Z,100.00
2022-10-30T10:35:46.033Z,100.00
2022-10-30T10:39:04.081Z,100.00
2022-10-30T10:42:15.045Z,100.00
2022-10-30T10:45:28.187Z,100.00
2022-10-30T10:48:41.061Z,100.00
2022-10-30T10:51:52.080Z,100.00
2022-10-30T10:55:05.053Z,100.00
2022-10-30T10:58:08.097Z,100.00
2022-10-30T11:01:13.086Z,100.00
2022-10-30T11:04:26.093Z,100.00
2022-10-30T11:07:41.059Z,100.00
2022-10-30T11:10:44.102Z,100.00
2022-10-30T11:13:58.059Z,100.00
2022-10-30T11:17:06.098Z,100.00
2022-10-30T11:20:21.060Z,100.00
2022-10-30T11:23:51.089Z,100.00
2022-10-30T11:26:54.095Z,100.00
2022-10-30T11:30:04.076Z,100.00
2022-10-30T11:33:07.096Z,100.00
2022-10-30T11:36:04.128Z,100.00
2022-10-30T11:39:07.070Z,100.00
2022-10-30T11:42:27.114Z,100.00
2022-10-30T11:45:42.086Z,100.00
2022-10-30T11:48:48.131Z,100.00
2022-10-30T11:51:56.075Z,100.00
2022-10-30T11:55:08.128Z,100.00
2022-10-30T11:58:12.084Z,100.00
2022-10-30T12:01:38.190Z,100.00
2022-10-30T12:04:43.096Z,100.00
2022-10-30T12:07:48.107Z,100.00
2022-10-30T12:11:14.078Z,100.00
2022-10-30T12:14:17.096Z,100.00
2022-10-30T12:17:21.136Z,100.00
2022-10-30T12:20:29.142Z,100.00
2022-10-30T12:23:36.090Z,100.00
2022-10-30T12:26:40.111Z,100.00
2022-10-30T12:30:12.102Z,100.00
2022-10-30T12:33:30.120Z,100.00
2022-10-30T12:36:36.130Z,100.00
2022-10-30T12:39:51.088Z,100.00
2022-10-30T12:43:08.129Z,100.00
2022-10-30T12:46:22.102Z,100.00
2022-10-30T12:49:44.146Z,100.00
2022-10-30T12:52:54.099Z,100.00
2022-10-30T12:56:08.140Z,100.00
2022-10-30T12:59:41.118Z,100.00
2022-10-30T13:03:03.172Z,100.00
2022-10-30T13:06:31.125Z,100.00
2022-10-30T13:09:46.148Z,100.00
2022-10-30T13:12:53.118Z,100.00
2022-10-30T13:16:16.164Z,100.00
2022-10-30T13:19:25.117Z,100.00
2022-10-30T13:22:34.145Z,100.00
2022-10-30T13:25:52.148Z,100.00
2022-10-30T13:29:39.134Z,100.00
2022-10-30T13:33:18.158Z,100.00
2022-10-30T13:36:24.155Z,100.00
2022-10-30T13:39:36.156Z,100.00
2022-10-30T13:42:51.162Z,100.00
2022-10-30T13:45:59.143Z,100.00
2022-10-30T13:49:12.166Z,100.00
2022-10-30T13:52:31.163Z,100.00
2022-10-30T13:55:46.169Z,100.00
2022-10-30T13:59:30.147Z,100.00
2022-10-30T14:03:11.165Z,100.00
2022-10-30T14:06:24.145Z,100.00
2022-10-30T14:09:40.178Z,100.00
2022-10-30T14:13:06.181Z,100.00
2022-10-30T14:16:16.150Z,100.00
2022-10-30T14:19:24.173Z,100.00
2022-10-30T14:22:39.141Z,100.00
2022-10-30T14:25:42.214Z,100.00
2022-10-30T14:28:53.153Z,100.00
2022-10-30T14:31:57.194Z,100.00
2022-10-30T14:35:06.189Z,100.00
2022-10-30T14:38:11.172Z,100.00
2022-10-30T14:41:34.175Z,100.00
2022-10-30T14:44:57.182Z,100.00
2022-10-30T14:48:22.181Z,100.00
2022-10-30T14:51:53.160Z,100.00
2022-10-30T14:55:19.201Z,100.00
2022-10-30T14:58:22.172Z,100.00
2022-10-30T15:01:25.349Z,100.00
2022-10-30T15:04:43.174Z,100.00
2022-10-30T15:08:07.198Z,100.00
2022-10-30T15:11:17.658Z,100.00
2022-10-30T15:14:58.194Z,100.00
2022-10-30T15:18:09.189Z,100.00
2022-10-30T15:21:16.195Z,100.00
2022-10-30T15:24:19.211Z,100.00
2022-10-30T15:27:22.188Z,100.00
2022-10-30T15:30:35.223Z,100.00
2022-10-30T15:33:40.175Z,100.00
2022-10-30T15:36:49.230Z,100.00
2022-10-30T15:39:53.435Z,100.00
2022-10-30T15:42:57.597Z,100.00
2022-10-30T15:46:02.175Z,100.00
2022-10-30T15:49:05.211Z,100.00
2022-10-30T15:52:08.218Z,100.00
2022-10-30T15:55:16.179Z,100.00
2022-10-30T15:58:20.463Z,100.00
2022-10-30T16:01:59.315Z,100.00
2022-10-30T16:05:02.194Z,100.00
2022-10-30T16:08:05.209Z,100.00
2022-10-30T16:11:09.196Z,100.00
2022-10-30T16:14:12.226Z,100.00
2022-10-30T16:17:16.209Z,100.00
2022-10-30T16:20:20.220Z,100.00
2022-10-30T16:23:23.208Z,100.00
2022-10-30T16:26:48.229Z,100.00
2022-10-30T16:29:52.254Z,100.00
2022-10-30T16:32:55.207Z,100.00
2022-10-30T16:36:06.254Z,100.00
2022-10-30T16:39:10.214Z,100.00
2022-10-30T16:42:14.247Z,100.00
2022-10-30T16:45:35.212Z,100.00
2022-10-30T16:48:41.347Z,100.00
2022-10-30T16:51:44.214Z,100.00
2022-10-30T16:54:53.245Z,100.00
2022-10-30T16:58:00.385Z,100.00
2022-10-30T17:01:10.320Z,100.00
2022-10-30T17:07:36.263Z,100.00
2022-10-30T17:10:45.226Z,100.00
2022-10-30T17:14:12.280Z,100.00
2022-10-30T17:17:16.232Z,100.00
2022-10-30T17:20:30.702Z,100.00
2022-10-30T17:23:34.237Z,100.00
2022-10-30T17:26:37.377Z,100.00
2022-10-30T17:30:06.239Z,100.00
2022-10-30T17:33:09.260Z,100.00
2022-10-30T17:36:12.245Z,100.00
2022-10-30T17:39:15.258Z,100.00
2022-10-30T17:42:20.244Z,100.00
2022-10-30T17:45:25.257Z,100.00
2022-10-30T17:48:33.254Z,100.00
2022-10-30T17:51:37.298Z,100.00
2022-10-30T17:54:41.254Z,100.00
2022-10-30T17:57:45.278Z,100.00
2022-10-30T18:00:48.343Z,100.00
2022-10-30T18:03:51.270Z,100.00
2022-10-30T18:06:54.286Z,100.00
2022-10-30T18:09:58.246Z,100.00
2022-10-30T18:13:01.704Z,100.00
2022-10-30T18:16:04.834Z,100.00
2022-10-30T18:19:03.272Z,100.00
2022-10-30T18:22:06.257Z,100.00
2022-10-30T18:25:09.261Z,100.00
2022-10-30T18:28:12.299Z,100.00
2022-10-30T18:31:16.268Z,100.00
2022-10-30T18:34:19.306Z,100.00
2022-10-30T18:37:22.250Z,100.00
2022-10-30T18:40:25.398Z,100.00
2022-10-30T18:43:28.270Z,100.00
2022-10-30T18:46:31.310Z,100.00
2022-10-30T18:49:37.254Z,100.00
2022-10-30T18:52:40.296Z,100.00
2022-10-30T18:55:55.270Z,100.00
2022-10-30T18:59:01.850Z,100.00
2022-10-30T19:02:05.380Z,100.00
2022-10-30T19:05:08.313Z,100.00
2022-10-30T19:08:12.267Z,100.00
2022-10-30T19:11:18.761Z,100.00
2022-10-30T19:14:28.290Z,100.00
2022-10-30T19:17:31.299Z,100.00
2022-10-30T19:20:58.491Z,100.00
2022-10-30T19:23:58.303Z,100.00
2022-10-30T19:27:01.281Z,100.00
2022-10-30T19:30:04.359Z,100.00
2022-10-30T19:33:07.280Z,100.00
2022-10-30T19:36:20.299Z,100.00
2022-10-30T19:39:28.340Z,100.00
2022-10-30T19:42:31.283Z,100.00
2022-10-30T19:45:35.323Z,100.00
2022-10-30T19:48:56.618Z,100.00
2022-10-30T19:52:00.331Z,100.00
2022-10-30T19:55:04.290Z,100.00
2022-10-30T19:58:07.339Z,100.00
2022-10-30T20:01:10.379Z,100.00
2022-10-30T20:04:13.330Z,100.00
2022-10-30T20:07:16.333Z,100.00
2022-10-30T20:10:34.346Z,100.00
2022-10-30T20:13:38.334Z,100.00
2022-10-30T20:16:41.348Z,100.00
2022-10-30T20:19:38.891Z,100.00
2022-10-30T20:22:35.335Z,100.00
2022-10-30T20:25:38.346Z,100.00
2022-10-30T20:28:53.314Z,100.00
2022-10-30T20:31:56.340Z,100.00
2022-10-30T20:35:00.297Z,100.00
2022-10-30T20:38:17.343Z,100.00
2022-10-30T20:41:22.367Z,100.00
2022-10-30T20:44:27.345Z,100.00
2022-10-30T20:47:30.350Z,100.00
2022-10-30T20:50:33.328Z,100.00
2022-10-30T20:53:36.360Z,100.00
2022-10-30T20:56:39.329Z,100.00
2022-10-30T20:59:42.356Z,100.00
2022-10-30T21:02:45.341Z,100.00
2022-10-30T21:05:50.366Z,100.00
2022-10-30T21:08:53.353Z,100.00
2022-10-30T21:11:57.359Z,100.00
2022-10-30T21:15:00.353Z,100.00
2022-10-30T21:18:03.404Z,100.00
2022-10-30T21:21:08.381Z,100.00
2022-10-30T21:24:13.342Z,100.00
2022-10-30T21:27:16.361Z,100.00
2022-10-30T21:30:19.373Z,100.00
2022-10-30T21:33:22.360Z,100.00
2022-10-30T21:36:30.379Z,100.00
2022-10-30T21:39:33.341Z,100.00
2022-10-30T21:42:36.377Z,100.00
2022-10-30T21:45:39.364Z,100.00
2022-10-30T21:48:42.390Z,100.00
2022-10-30T21:51:45.359Z,100.00
2022-10-30T21:54:51.395Z,100.00
2022-10-30T21:57:54.359Z,100.00
2022-10-30T22:00:58.543Z,100.00
2022-10-30T22:04:02.355Z,100.00
2022-10-30T22:07:05.397Z,100.00
2022-10-30T22:10:08.351Z,100.00
2022-10-30T22:16:21.377Z,100.00
2022-10-30T22:19:25.414Z,100.00
2022-10-30T22:22:29.373Z,100.00
2022-10-30T22:25:32.414Z,100.00
2022-10-30T22:28:35.422Z,100.00
2022-10-30T22:31:39.356Z,100.00
2022-10-30T22:34:43.419Z,97.74
2022-10-30T22:37:47.373Z,98.59
2022-10-30T22:40:50.414Z,100.00
2022-10-30T22:43:55.395Z,100.00
2022-10-30T22:46:58.380Z,100.00
2022-10-30T22:50:02.438Z,100.00
2022-10-30T22:53:05.395Z,97.02
2022-10-30T22:56:09.425Z,95.96
2022-10-30T22:59:12.401Z,96.73
2022-10-30T23:02:15.419Z,94.10
2022-10-30T23:05:19.385Z,93.96
2022-10-30T23:08:22.417Z,93.91
2022-10-30T23:11:25.383Z,96.16
2022-10-30T23:14:29.420Z,90.33
2022-10-30T23:17:32.421Z,93.91
2022-10-30T23:20:29.042Z,90.85
2022-10-30T23:23:26.421Z,90.86
2022-10-30T23:26:38.410Z,92.62
2022-10-30T23:29:41.435Z,88.91
2022-10-30T23:32:44.411Z,89.83
2022-10-30T23:35:47.428Z,80.51
2022-10-30T23:38:50.430Z,79.69
2022-10-30T23:41:54.422Z,84.42
2022-10-30T23:44:58.423Z,80.27
2022-10-30T23:48:01.726Z,80.62
2022-10-30T23:51:05.407Z,80.42
2022-10-30T23:54:08.445Z,80.20
2022-10-30T23:57:11.398Z,73.56
